Cummington, Massachusetts
Current Conditions -  °F | °C
As of 4:54 PM on Saturday 25 Oct 2014 (Local Time) from KPSF Reporting Station
Clear Clear  
Wind Chill: 58°   Ceiling: Unl
Heat Index: 58°   Visibility: 10mi
Dew Point: 41°   Wind: 7mph
Humidity: 53%   Direction: 220°SW
Pressure: 29.6"   Gusts: NA
Location:  42.46°N, 72.89°W
Report Text: KPSF 252054Z AUTO 22006KT 10SM CLR 14/05 A2960 RMK AO2 SLP015 T01440050 56026
Loading
Personal Weather Stations






























Interactive Weather Map
Tropical Storm Tracking
New forecast layout! Learn more

10-Day Weather Forecast

Advertisements
Track Severe Weather on mobile